createdAt,value
2019-03-27T00:01:48.856Z,-0.54
2019-03-27T00:04:21.520Z,-0.54
2019-03-27T00:06:54.336Z,-0.55
2019-03-27T00:09:27.201Z,-0.59
2019-03-27T00:12:00.199Z,-0.60
2019-03-27T00:14:32.806Z,-0.63
2019-03-27T00:17:06.100Z,-0.65
2019-03-27T00:19:38.856Z,-0.65
2019-03-27T00:22:11.626Z,-0.67
2019-03-27T00:24:44.656Z,-0.68
2019-03-27T00:27:17.851Z,-0.69
2019-03-27T00:29:50.958Z,-0.70
2019-03-27T00:32:23.759Z,-0.68
2019-03-27T00:34:56.587Z,-0.66
2019-03-27T00:37:29.409Z,-0.65
2019-03-27T00:40:01.952Z,-0.64
2019-03-27T00:42:34.626Z,-0.65
2019-03-27T00:45:08.746Z,-0.68
2019-03-27T00:47:41.376Z,-0.71
2019-03-27T00:50:14.916Z,-0.74
2019-03-27T00:52:47.685Z,-0.78
2019-03-27T00:55:20.786Z,-0.78
2019-03-27T00:57:53.456Z,-0.80
2019-03-27T01:00:29.616Z,-0.81
2019-03-27T01:03:02.226Z,-0.79
2019-03-27T01:05:34.977Z,-0.80
2019-03-27T01:08:07.893Z,-0.82
2019-03-27T01:10:40.680Z,-0.83
2019-03-27T01:13:13.326Z,-0.85
2019-03-27T01:15:45.836Z,-0.86
2019-03-27T01:18:18.576Z,-0.85
2019-03-27T01:20:52.365Z,-0.85
2019-03-27T01:23:25.156Z,-0.87
2019-03-27T01:25:57.846Z,-0.90
2019-03-27T01:28:30.746Z,-0.91
2019-03-27T01:31:03.479Z,-0.95
2019-03-27T01:33:36.276Z,-0.95
2019-03-27T01:36:08.965Z,-0.96
2019-03-27T01:38:41.666Z,-0.96
2019-03-27T01:41:14.536Z,-0.95
2019-03-27T01:43:47.096Z,-0.96
2019-03-27T01:46:19.847Z,-0.98
2019-03-27T01:48:52.724Z,-0.99
2019-03-27T01:51:25.516Z,-1.01
2019-03-27T01:53:58.066Z,-1.02
2019-03-27T01:56:30.874Z,-1.02
2019-03-27T01:59:03.846Z,-1.01
2019-03-27T02:01:36.415Z,-1.04
2019-03-27T02:04:09.206Z,-1.04
2019-03-27T02:06:42.056Z,-1.05
2019-03-27T02:09:14.726Z,-1.04
2019-03-27T02:11:47.325Z,-1.04
2019-03-27T02:14:19.805Z,-1.05
2019-03-27T02:16:52.586Z,-1.06
2019-03-27T02:19:25.427Z,-1.06
2019-03-27T02:21:58.676Z,-1.07
2019-03-27T02:24:31.615Z,-1.09
2019-03-27T02:27:05.366Z,-1.12
2019-03-27T02:29:37.971Z,-1.12
2019-03-27T02:32:10.862Z,-1.13
2019-03-27T02:34:43.687Z,-1.15
2019-03-27T02:37:16.286Z,-1.16
2019-03-27T02:39:49.415Z,-1.15
2019-03-27T02:42:22.080Z,-1.15
2019-03-27T02:44:54.936Z,-1.16
2019-03-27T02:47:28.140Z,-1.18
2019-03-27T02:50:01.112Z,-1.20
2019-03-27T02:52:34.854Z,-1.20
2019-03-27T02:55:07.637Z,-1.20
2019-03-27T02:57:40.357Z,-1.18
2019-03-27T03:00:13.641Z,-1.18
2019-03-27T03:02:46.617Z,-1.20
2019-03-27T03:05:19.436Z,-1.23
2019-03-27T03:07:52.186Z,-1.25
2019-03-27T03:10:25.090Z,-1.26
2019-03-27T03:12:57.577Z,-1.27
2019-03-27T03:15:30.309Z,-1.27
2019-03-27T03:18:03.891Z,-1.29
2019-03-27T03:20:36.744Z,-1.30
2019-03-27T03:23:09.609Z,-1.30
2019-03-27T03:25:42.368Z,-1.30
2019-03-27T03:28:14.925Z,-1.31
2019-03-27T03:30:47.881Z,-1.32
2019-03-27T03:33:20.838Z,-1.34
2019-03-27T03:35:53.650Z,-1.38
2019-03-27T03:38:26.519Z,-1.41
2019-03-27T03:40:59.426Z,-1.42
2019-03-27T03:43:32.108Z,-1.45
2019-03-27T03:46:05.137Z,-1.44
2019-03-27T03:48:38.306Z,-1.42
2019-03-27T03:51:11.577Z,-1.45
2019-03-27T03:53:44.746Z,-1.45
2019-03-27T03:56:17.707Z,-1.46
2019-03-27T03:58:50.617Z,-1.47
2019-03-27T04:01:25.646Z,-1.49
2019-03-27T04:03:59.231Z,-1.58
2019-03-27T04:06:32.093Z,-1.51
2019-03-27T04:09:05.276Z,-1.51
2019-03-27T04:11:38.016Z,-1.50
2019-03-27T04:14:10.738Z,-1.51
2019-03-27T04:16:44.498Z,-1.52
2019-03-27T04:19:17.088Z,-1.52
2019-03-27T04:21:51.297Z,-1.53
2019-03-27T04:24:24.012Z,-1.54
2019-03-27T04:26:56.712Z,-1.52
2019-03-27T04:29:29.307Z,-1.51
2019-03-27T04:32:02.471Z,-1.55
2019-03-27T04:34:35.199Z,-1.54
2019-03-27T04:37:09.040Z,-1.51
2019-03-27T04:39:41.856Z,-1.53
2019-03-27T04:42:14.796Z,-1.55
2019-03-27T04:44:48.186Z,-1.58
2019-03-27T04:47:32.031Z,-1.58
2019-03-27T04:49:55.325Z,-1.63
2019-03-27T04:52:28.289Z,-1.62
2019-03-27T04:55:00.878Z,-1.61
2019-03-27T04:57:33.578Z,-1.58
2019-03-27T05:00:07.946Z,-1.54
2019-03-27T05:02:40.685Z,-1.52
2019-03-27T05:05:13.547Z,-1.48
2019-03-27T05:07:46.459Z,-1.44
2019-03-27T05:10:21.326Z,-1.39
2019-03-27T05:12:54.136Z,-1.34
2019-03-27T05:15:27.076Z,-1.27
2019-03-27T05:17:59.786Z,-1.21
2019-03-27T05:20:32.576Z,-1.16
2019-03-27T05:23:05.655Z,-1.10
2019-03-27T05:25:38.273Z,-1.04
2019-03-27T05:28:11.318Z,-0.99
2019-03-27T05:30:44.036Z,-0.96
2019-03-27T05:33:16.915Z,-0.91
2019-03-27T05:35:49.736Z,-0.87
2019-03-27T05:38:22.516Z,-0.80
2019-03-27T05:40:55.284Z,-0.76
2019-03-27T05:43:28.036Z,-0.69
2019-03-27T05:46:00.787Z,-0.62
2019-03-27T05:48:33.409Z,-0.59
2019-03-27T05:51:06.076Z,-0.52
2019-03-27T05:53:38.805Z,-0.45
2019-03-27T05:56:11.867Z,-0.36
2019-03-27T05:58:44.927Z,-0.27
2019-03-27T06:01:17.556Z,-0.14
2019-03-27T06:03:50.476Z,-0.03
2019-03-27T06:06:23.321Z,0.08
2019-03-27T06:08:55.986Z,0.19
2019-03-27T06:11:28.836Z,0.31
2019-03-27T06:14:01.648Z,0.50
2019-03-27T06:16:34.565Z,0.61
2019-03-27T06:19:07.334Z,0.77
2019-03-27T06:21:40.096Z,0.85
2019-03-27T06:24:12.994Z,1.05
2019-03-27T06:26:45.713Z,1.14
2019-03-27T06:29:18.636Z,1.26
2019-03-27T06:31:51.114Z,1.36
2019-03-27T06:34:24.215Z,1.53
2019-03-27T06:36:57.047Z,1.60
2019-03-27T06:39:29.764Z,1.73
2019-03-27T06:42:03.059Z,1.86
2019-03-27T06:44:36.026Z,2.00
2019-03-27T06:47:08.806Z,2.14
2019-03-27T06:49:41.806Z,2.14
2019-03-27T06:52:14.771Z,2.29
2019-03-27T06:54:47.546Z,2.44
2019-03-27T06:57:21.006Z,2.67
2019-03-27T06:59:53.607Z,2.80
2019-03-27T07:02:28.911Z,2.89
2019-03-27T07:05:00.956Z,3.04
2019-03-27T07:07:33.635Z,3.22
2019-03-27T07:10:06.986Z,3.34
2019-03-27T07:12:39.635Z,3.47
2019-03-27T07:15:12.419Z,3.54
2019-03-27T07:17:45.060Z,3.61
2019-03-27T07:20:17.509Z,3.85
2019-03-27T07:22:50.106Z,4.03
2019-03-27T07:25:22.795Z,4.29
2019-03-27T07:27:55.647Z,4.55
2019-03-27T07:30:28.266Z,4.86
2019-03-27T07:33:01.056Z,5.07
2019-03-27T07:35:33.736Z,5.29
2019-03-27T07:38:08.876Z,5.32
2019-03-27T07:40:41.375Z,5.28
2019-03-27T07:43:14.146Z,5.17
2019-03-27T07:45:46.956Z,5.16
2019-03-27T07:48:20.816Z,5.61
2019-03-27T07:50:53.766Z,5.75
2019-03-27T07:53:26.467Z,6.18
2019-03-27T07:55:59.860Z,6.23
2019-03-27T07:58:32.926Z,6.29
2019-03-27T08:01:05.816Z,6.39
2019-03-27T08:03:38.378Z,6.04
2019-03-27T08:06:11.996Z,6.02
2019-03-27T08:08:44.899Z,5.66
2019-03-27T08:11:17.630Z,5.92
2019-03-27T08:13:50.355Z,6.41
2019-03-27T08:16:25.093Z,6.75
2019-03-27T08:19:07.371Z,6.54
2019-03-27T08:21:32.307Z,6.38
2019-03-27T08:24:05.932Z,6.85
2019-03-27T08:26:38.593Z,7.05
2019-03-27T08:29:11.093Z,7.19
2019-03-27T08:31:43.644Z,7.02
2019-03-27T08:34:16.471Z,7.55
2019-03-27T08:36:51.352Z,8.02
2019-03-27T08:39:23.655Z,7.79
2019-03-27T08:41:56.333Z,7.71
2019-03-27T08:44:28.973Z,7.86
2019-03-27T08:47:01.664Z,8.16
2019-03-27T08:49:34.218Z,8.42
2019-03-27T08:52:07.162Z,8.24
2019-03-27T08:54:40.171Z,7.93
2019-03-27T08:57:12.772Z,7.89
2019-03-27T08:59:45.381Z,7.90
2019-03-27T09:02:18.070Z,8.18
2019-03-27T09:04:50.633Z,8.21
2019-03-27T09:07:23.263Z,7.70
2019-03-27T09:09:55.963Z,8.28
2019-03-27T09:12:28.513Z,9.03
2019-03-27T09:15:00.973Z,9.28
2019-03-27T09:17:33.684Z,9.09
2019-03-27T09:20:07.383Z,9.46
2019-03-27T09:22:40.195Z,9.51
2019-03-27T09:25:12.841Z,9.42
2019-03-27T09:27:45.613Z,9.82
2019-03-27T09:30:18.883Z,10.48
2019-03-27T09:32:51.483Z,10.05
2019-03-27T09:35:23.973Z,10.17
2019-03-27T09:37:56.564Z,9.91
2019-03-27T09:40:29.054Z,10.07
2019-03-27T09:43:01.676Z,10.39
2019-03-27T09:45:34.163Z,10.10
2019-03-27T09:48:06.778Z,10.35
2019-03-27T09:50:39.341Z,10.88
2019-03-27T09:53:11.833Z,11.00
2019-03-27T09:55:44.486Z,11.50
2019-03-27T09:58:17.286Z,11.67
2019-03-27T10:01:06.881Z,11.83
2019-03-27T10:03:39.643Z,11.61
2019-03-27T10:06:12.343Z,11.87
2019-03-27T10:08:44.874Z,11.72
2019-03-27T10:11:17.613Z,11.87
2019-03-27T10:13:50.303Z,11.73
2019-03-27T10:16:22.993Z,11.67
2019-03-27T10:18:55.653Z,12.18
2019-03-27T10:21:28.193Z,12.05
2019-03-27T10:24:00.883Z,11.95
2019-03-27T10:26:33.904Z,12.47
2019-03-27T10:29:09.671Z,12.27
2019-03-27T10:31:42.361Z,12.08
2019-03-27T10:34:14.883Z,12.29
2019-03-27T10:36:47.503Z,12.77
2019-03-27T10:39:20.193Z,13.25
2019-03-27T10:41:52.922Z,13.79
2019-03-27T10:44:25.558Z,13.48
2019-03-27T10:46:58.074Z,13.21
2019-03-27T10:49:34.156Z,13.00
2019-03-27T10:52:05.433Z,11.64
2019-03-27T10:54:38.066Z,11.96
2019-03-27T10:57:10.755Z,12.55
2019-03-27T10:59:43.322Z,12.73
2019-03-27T11:02:15.814Z,12.35
2019-03-27T11:04:48.452Z,12.38
2019-03-27T11:07:21.204Z,12.19
2019-03-27T11:09:53.714Z,12.17
2019-03-27T11:12:26.214Z,12.37
2019-03-27T11:14:58.913Z,12.43
2019-03-27T11:17:31.293Z,13.53
2019-03-27T11:20:03.973Z,12.92
2019-03-27T11:22:36.511Z,13.50
2019-03-27T11:25:09.293Z,13.71
2019-03-27T11:27:41.844Z,13.83
2019-03-27T11:30:14.784Z,13.83
2019-03-27T11:32:47.933Z,12.65
2019-03-27T11:35:20.636Z,12.66
2019-03-27T11:37:53.403Z,13.41
2019-03-27T11:40:26.123Z,13.60
2019-03-27T11:42:58.913Z,13.62
2019-03-27T11:45:31.513Z,13.98
2019-03-27T11:48:08.049Z,13.56
2019-03-27T11:50:45.089Z,13.32
2019-03-27T11:53:13.663Z,13.69
2019-03-27T11:55:46.372Z,13.55
2019-03-27T11:58:19.173Z,13.91
2019-03-27T12:00:54.776Z,13.80
2019-03-27T12:03:26.093Z,14.25
2019-03-27T12:05:58.863Z,14.39
2019-03-27T12:08:31.453Z,14.11
2019-03-27T12:11:04.175Z,14.37
2019-03-27T12:13:36.651Z,14.53
2019-03-27T12:16:09.591Z,14.40
2019-03-27T12:18:42.093Z,14.73
2019-03-27T12:21:15.356Z,14.76
2019-03-27T12:23:47.853Z,15.08
2019-03-27T12:26:20.473Z,15.39
2019-03-27T12:28:53.084Z,14.93
2019-03-27T12:31:25.933Z,15.06
2019-03-27T12:33:58.675Z,15.48
2019-03-27T12:36:31.353Z,15.26
2019-03-27T12:39:05.573Z,14.98
2019-03-27T12:41:38.243Z,14.12
2019-03-27T12:44:10.723Z,14.48
2019-03-27T12:46:43.663Z,14.42
2019-03-27T12:49:16.134Z,14.76
2019-03-27T12:51:48.824Z,14.83
2019-03-27T12:54:21.527Z,14.24
2019-03-27T12:56:54.173Z,14.31
2019-03-27T12:59:26.682Z,14.15
2019-03-27T13:01:59.543Z,14.16
2019-03-27T13:04:32.135Z,14.08
2019-03-27T13:07:04.707Z,13.95
2019-03-27T13:09:37.353Z,14.31
2019-03-27T13:12:10.213Z,14.77
2019-03-27T13:14:42.973Z,14.95
2019-03-27T13:17:15.703Z,14.64
2019-03-27T13:19:48.443Z,13.85
2019-03-27T13:22:22.289Z,13.65
2019-03-27T13:24:54.872Z,13.56
2019-03-27T13:27:27.553Z,13.69
2019-03-27T13:30:02.893Z,13.83
2019-03-27T13:32:35.654Z,13.85
2019-03-27T13:35:09.253Z,13.45
2019-03-27T13:37:42.081Z,13.70
2019-03-27T13:40:15.136Z,14.01
2019-03-27T13:42:47.813Z,14.17
2019-03-27T13:45:21.118Z,14.00
2019-03-27T13:47:53.895Z,14.09
2019-03-27T13:50:26.633Z,13.95
2019-03-27T13:52:59.133Z,13.41
2019-03-27T13:55:35.176Z,13.48
2019-03-27T13:58:06.994Z,13.46
2019-03-27T14:00:39.734Z,13.47
2019-03-27T14:03:12.387Z,13.31
2019-03-27T14:05:45.033Z,13.35
2019-03-27T14:08:21.216Z,13.11
2019-03-27T14:10:53.903Z,13.01
2019-03-27T14:13:26.821Z,12.90
2019-03-27T14:15:59.680Z,12.73
2019-03-27T14:18:32.524Z,12.65
2019-03-27T14:21:05.338Z,12.61
2019-03-27T14:23:37.824Z,12.70
2019-03-27T14:26:10.874Z,12.70
2019-03-27T14:28:44.083Z,12.58
2019-03-27T14:31:16.874Z,12.23
2019-03-27T14:33:49.653Z,12.15
2019-03-27T14:36:23.193Z,12.11
2019-03-27T14:38:55.804Z,11.86
2019-03-27T14:41:28.533Z,12.12
2019-03-27T14:44:01.365Z,12.05
2019-03-27T14:46:33.997Z,12.06
2019-03-27T14:49:07.211Z,11.85
2019-03-27T14:51:39.963Z,11.63
2019-03-27T14:54:12.905Z,11.33
2019-03-27T14:56:45.395Z,11.12
2019-03-27T14:59:18.082Z,11.06
2019-03-27T15:01:50.963Z,11.03
2019-03-27T15:04:23.682Z,10.99
2019-03-27T15:06:56.534Z,10.68
2019-03-27T15:09:29.521Z,10.77
2019-03-27T15:12:02.304Z,10.73
2019-03-27T15:14:35.103Z,10.69
2019-03-27T15:17:07.973Z,10.67
2019-03-27T15:19:40.808Z,10.47
2019-03-27T15:22:22.268Z,10.47
2019-03-27T15:24:48.253Z,10.56
2019-03-27T15:27:20.874Z,10.55
2019-03-27T15:29:54.101Z,10.48
2019-03-27T15:32:28.423Z,10.22
2019-03-27T15:35:01.357Z,10.32
2019-03-27T15:37:36.673Z,10.16
2019-03-27T15:40:09.723Z,9.96
2019-03-27T15:42:42.893Z,9.96
2019-03-27T15:45:15.597Z,9.94
2019-03-27T15:47:48.234Z,9.89
2019-03-27T15:50:20.672Z,9.80
2019-03-27T15:52:53.515Z,9.82
2019-03-27T15:55:26.083Z,9.79
2019-03-27T15:57:58.813Z,9.67
2019-03-27T16:00:34.989Z,9.54
2019-03-27T16:03:07.613Z,9.51
2019-03-27T16:05:40.301Z,9.46
2019-03-27T16:08:12.983Z,9.41
2019-03-27T16:10:46.263Z,9.37
2019-03-27T16:13:19.064Z,9.31
2019-03-27T16:15:52.136Z,9.21
2019-03-27T16:18:25.293Z,9.06
2019-03-27T16:20:58.244Z,8.96
2019-03-27T16:23:32.470Z,8.83
2019-03-27T16:26:05.335Z,8.70
2019-03-27T16:28:37.993Z,8.54
2019-03-27T16:31:11.083Z,8.42
2019-03-27T16:33:44.783Z,8.34
2019-03-27T16:36:17.443Z,8.29
2019-03-27T16:38:50.113Z,8.22
2019-03-27T16:41:22.993Z,8.15
2019-03-27T16:43:55.863Z,8.02
2019-03-27T16:46:28.793Z,7.92
2019-03-27T16:49:01.273Z,7.82
2019-03-27T16:51:33.833Z,7.70
2019-03-27T16:54:06.423Z,7.62
2019-03-27T16:56:38.853Z,7.50
2019-03-27T16:59:11.403Z,7.35
2019-03-27T17:01:44.061Z,7.24
2019-03-27T17:04:16.547Z,7.16
2019-03-27T17:06:49.223Z,7.09
2019-03-27T17:09:22.124Z,7.02
2019-03-27T17:11:54.861Z,6.98
2019-03-27T17:14:28.522Z,6.89
2019-03-27T17:17:01.305Z,6.79
2019-03-27T17:19:33.974Z,6.67
2019-03-27T17:22:18.888Z,6.55
2019-03-27T17:27:47.320Z,6.32
2019-03-27T17:30:19.583Z,6.16
2019-03-27T17:32:52.942Z,6.06
2019-03-27T17:35:25.790Z,5.95
2019-03-27T17:37:59.492Z,5.86
2019-03-27T17:40:32.913Z,5.76
2019-03-27T17:43:05.685Z,5.66
2019-03-27T17:45:38.853Z,5.61
2019-03-27T17:48:11.741Z,5.53
2019-03-27T17:50:44.163Z,5.49
2019-03-27T17:53:30.773Z,5.46
2019-03-27T17:55:57.345Z,5.50
2019-03-27T17:58:33.751Z,5.46
2019-03-27T18:01:06.603Z,5.41
2019-03-27T18:03:39.334Z,5.35
2019-03-27T18:06:12.010Z,5.30
2019-03-27T18:08:44.952Z,5.20
2019-03-27T18:11:17.892Z,5.09
2019-03-27T18:13:50.754Z,5.02
2019-03-27T18:16:23.631Z,5.01
2019-03-27T18:18:56.643Z,4.96
2019-03-27T18:21:29.513Z,4.89
2019-03-27T18:24:02.364Z,4.81
2019-03-27T18:26:34.993Z,4.82
2019-03-27T18:29:07.793Z,4.81
2019-03-27T18:31:40.703Z,4.76
2019-03-27T18:34:13.235Z,4.78
2019-03-27T18:36:46.125Z,4.82
2019-03-27T18:39:18.910Z,4.87
2019-03-27T18:41:51.484Z,4.91
2019-03-27T18:44:24.263Z,5.00
2019-03-27T18:46:56.953Z,5.04
2019-03-27T18:49:29.814Z,5.06
2019-03-27T18:52:02.543Z,5.12
2019-03-27T18:54:35.273Z,5.15
2019-03-27T18:57:08.183Z,5.16
2019-03-27T18:59:42.133Z,5.16
2019-03-27T19:02:15.198Z,5.19
2019-03-27T19:04:48.582Z,5.23
2019-03-27T19:07:21.460Z,5.26
2019-03-27T19:09:54.383Z,5.29
2019-03-27T19:12:27.412Z,5.34
2019-03-27T19:15:00.500Z,5.38
2019-03-27T19:17:33.431Z,5.35
2019-03-27T19:20:06.433Z,5.35
2019-03-27T19:22:39.203Z,5.36
2019-03-27T19:25:12.770Z,5.38
2019-03-27T19:27:46.034Z,5.40
2019-03-27T19:30:19.723Z,5.39
2019-03-27T19:32:52.534Z,5.39
2019-03-27T19:35:25.785Z,5.41
2019-03-27T19:37:59.307Z,5.42
2019-03-27T19:40:32.111Z,5.45
2019-03-27T19:43:05.123Z,5.45
2019-03-27T19:45:37.831Z,5.45
2019-03-27T19:48:10.833Z,5.43
2019-03-27T19:50:45.433Z,5.42
2019-03-27T19:53:18.733Z,5.40
2019-03-27T19:55:51.386Z,5.38
2019-03-27T19:58:24.422Z,5.38
2019-03-27T20:03:29.937Z,5.35
2019-03-27T20:06:02.723Z,5.28
2019-03-27T20:08:35.883Z,5.24
2019-03-27T20:11:09.237Z,5.20
2019-03-27T20:13:42.137Z,5.17
2019-03-27T20:16:14.890Z,5.14
2019-03-27T20:18:47.613Z,5.11
2019-03-27T20:21:20.575Z,5.10
2019-03-27T20:23:53.472Z,5.07
2019-03-27T20:26:26.173Z,5.03
2019-03-27T20:28:58.893Z,4.99
2019-03-27T20:31:31.722Z,4.94
2019-03-27T20:34:05.359Z,4.87
2019-03-27T20:36:38.653Z,4.83
2019-03-27T20:39:12.192Z,4.80
2019-03-27T20:41:46.732Z,4.75
2019-03-27T20:44:21.273Z,4.73
2019-03-27T20:46:55.173Z,4.71
2019-03-27T20:49:28.833Z,4.71
2019-03-27T20:52:02.213Z,4.72
2019-03-27T20:54:34.843Z,4.71
2019-03-27T20:57:07.515Z,4.68
2019-03-27T20:59:40.156Z,4.65
2019-03-27T21:02:13.784Z,4.67
2019-03-27T21:04:46.443Z,4.67
2019-03-27T21:07:19.023Z,4.70
2019-03-27T21:09:53.281Z,4.73
2019-03-27T21:12:26.287Z,4.75
2019-03-27T21:14:58.842Z,4.75
2019-03-27T21:17:31.303Z,4.75
2019-03-27T21:20:04.411Z,4.75
2019-03-27T21:22:37.455Z,4.76
2019-03-27T21:25:10.670Z,4.78
2019-03-27T21:27:43.317Z,4.78
2019-03-27T21:30:17.014Z,4.78
2019-03-27T21:32:49.751Z,4.81
2019-03-27T21:35:23.514Z,4.86
2019-03-27T21:37:56.293Z,4.91
2019-03-27T21:40:28.966Z,4.94
2019-03-27T21:43:02.031Z,4.97
2019-03-27T21:45:34.712Z,5.00
2019-03-27T21:48:07.350Z,5.05
2019-03-27T21:50:40.626Z,5.10
2019-03-27T21:53:13.445Z,5.14
2019-03-27T21:55:46.076Z,5.16
2019-03-27T21:58:18.782Z,5.18
2019-03-27T22:00:51.802Z,5.22
2019-03-27T22:03:24.762Z,5.22
2019-03-27T22:05:57.372Z,5.21
2019-03-27T22:08:29.913Z,5.20
2019-03-27T22:11:02.483Z,5.20
2019-03-27T22:13:35.112Z,5.21
2019-03-27T22:16:07.806Z,5.20
2019-03-27T22:18:40.482Z,5.20
2019-03-27T22:21:13.222Z,5.18
2019-03-27T22:23:45.905Z,5.19
2019-03-27T22:26:18.782Z,5.19
2019-03-27T22:28:51.582Z,5.19
2019-03-27T22:31:24.253Z,5.20
2019-03-27T22:33:57.534Z,5.19
2019-03-27T22:36:30.442Z,5.20
2019-03-27T22:39:03.090Z,5.20
2019-03-27T22:41:36.470Z,5.20
2019-03-27T22:44:09.094Z,5.19
2019-03-27T22:46:41.832Z,5.19
2019-03-27T22:49:14.473Z,5.20
2019-03-27T22:51:47.073Z,5.20
2019-03-27T22:54:20.014Z,5.21
2019-03-27T22:56:52.862Z,5.23
2019-03-27T22:59:28.204Z,5.25
2019-03-27T23:02:00.792Z,5.27
2019-03-27T23:04:33.271Z,5.31
2019-03-27T23:07:06.083Z,5.35
2019-03-27T23:09:38.593Z,5.40
2019-03-27T23:12:11.072Z,5.46
2019-03-27T23:14:44.101Z,5.51
2019-03-27T23:17:16.763Z,5.54
2019-03-27T23:19:51.315Z,5.57
2019-03-27T23:22:23.703Z,5.60
2019-03-27T23:24:56.272Z,5.63
2019-03-27T23:27:28.975Z,5.66
2019-03-27T23:30:01.965Z,5.68
2019-03-27T23:32:34.862Z,5.69
2019-03-27T23:35:08.374Z,5.71
2019-03-27T23:37:40.982Z,5.73
2019-03-27T23:40:13.821Z,5.76
2019-03-27T23:42:46.823Z,5.79
2019-03-27T23:45:19.393Z,5.82
2019-03-27T23:47:52.192Z,5.84
2019-03-27T23:50:24.737Z,5.85
2019-03-27T23:52:57.233Z,5.86
2019-03-27T23:55:29.828Z,5.89
2019-03-27T23:58:02.950Z,5.94
